sensor_id;sensor_type;location;lat;lon;timestamp;temperature;humidity
837;DHT22;400;53.550;9.932;2022-09-04T00:01:24;18.10;99.90
837;DHT22;400;53.550;9.932;2022-09-04T00:04:05;18.10;99.90
837;DHT22;400;53.550;9.932;2022-09-04T00:06:45;18.10;99.90
837;DHT22;400;53.550;9.932;2022-09-04T00:09:17;18.10;99.90
837;DHT22;400;53.550;9.932;2022-09-04T00:11:50;18.00;99.90
837;DHT22;400;53.550;9.932;2022-09-04T00:14:21;18.00;99.90
837;DHT22;400;53.550;9.932;2022-09-04T00:16:55;18.00;99.90
837;DHT22;400;53.550;9.932;2022-09-04T00:19:33;18.00;99.90
837;DHT22;400;53.550;9.932;2022-09-04T00:22:03;18.00;99.90
837;DHT22;400;53.550;9.932;2022-09-04T00:24:36;17.90;99.90
837;DHT22;400;53.550;9.932;2022-09-04T00:27:07;18.00;99.90
837;DHT22;400;53.550;9.932;2022-09-04T00:29:41;17.90;99.90
837;DHT22;400;53.550;9.932;2022-09-04T00:32:21;17.90;99.90
837;DHT22;400;53.550;9.932;2022-09-04T00:35:00;17.90;99.90
837;DHT22;400;53.550;9.932;2022-09-04T00:37:31;17.90;99.90
837;DHT22;400;53.550;9.932;2022-09-04T00:40:03;17.90;99.90
837;DHT22;400;53.550;9.932;2022-09-04T00:43:02;17.90;99.90
837;DHT22;400;53.550;9.932;2022-09-04T00:45:49;17.80;99.90
837;DHT22;400;53.550;9.932;2022-09-04T00:48:50;17.80;99.90
837;DHT22;400;53.550;9.932;2022-09-04T00:51:31;17.80;99.90
837;DHT22;400;53.550;9.932;2022-09-04T00:57:22;17.70;99.90
837;DHT22;400;53.550;9.932;2022-09-04T01:00:07;17.70;99.90
837;DHT22;400;53.550;9.932;2022-09-04T01:03:04;17.70;99.90
837;DHT22;400;53.550;9.932;2022-09-04T01:05:51;17.70;99.90
837;DHT22;400;53.550;9.932;2022-09-04T01:08:34;17.70;99.90
837;DHT22;400;53.550;9.932;2022-09-04T01:11:11;17.70;99.90
837;DHT22;400;53.550;9.932;2022-09-04T01:13:44;17.70;99.90
837;DHT22;400;53.550;9.932;2022-09-04T01:16:20;17.60;99.90
837;DHT22;400;53.550;9.932;2022-09-04T01:18:53;17.50;99.90
837;DHT22;400;53.550;9.932;2022-09-04T01:21:34;17.50;99.90
837;DHT22;400;53.550;9.932;2022-09-04T01:24:21;17.50;99.90
837;DHT22;400;53.550;9.932;2022-09-04T01:27:02;17.50;99.90
837;DHT22;400;53.550;9.932;2022-09-04T01:29:43;17.60;99.90
837;DHT22;400;53.550;9.932;2022-09-04T01:32:22;17.50;99.90
837;DHT22;400;53.550;9.932;2022-09-04T01:34:59;17.50;99.90
837;DHT22;400;53.550;9.932;2022-09-04T01:37:40;17.50;99.90
837;DHT22;400;53.550;9.932;2022-09-04T01:40:28;17.50;99.90
837;DHT22;400;53.550;9.932;2022-09-04T01:43:03;17.50;99.90
837;DHT22;400;53.550;9.932;2022-09-04T01:48:22;17.40;99.90
837;DHT22;400;53.550;9.932;2022-09-04T01:50:57;17.40;99.90
837;DHT22;400;53.550;9.932;2022-09-04T01:53:32;17.40;99.90
837;DHT22;400;53.550;9.932;2022-09-04T01:56:13;17.40;99.90
837;DHT22;400;53.550;9.932;2022-09-04T01:58:47;17.40;99.90
837;DHT22;400;53.550;9.932;2022-09-04T02:01:25;17.40;99.90
837;DHT22;400;53.550;9.932;2022-09-04T02:03:59;17.40;99.90
837;DHT22;400;53.550;9.932;2022-09-04T02:06:39;17.40;99.90
837;DHT22;400;53.550;9.932;2022-09-04T02:09:19;17.40;99.90
837;DHT22;400;53.550;9.932;2022-09-04T02:11:58;17.30;99.90
837;DHT22;400;53.550;9.932;2022-09-04T02:14:35;17.30;99.90
837;DHT22;400;53.550;9.932;2022-09-04T02:17:10;17.40;99.90
837;DHT22;400;53.550;9.932;2022-09-04T02:19:52;17.30;99.90
837;DHT22;400;53.550;9.932;2022-09-04T02:22:27;17.40;99.90
837;DHT22;400;53.550;9.932;2022-09-04T02:25:05;17.40;99.90
837;DHT22;400;53.550;9.932;2022-09-04T02:27:42;17.40;99.90
837;DHT22;400;53.550;9.932;2022-09-04T02:30:15;17.40;99.90
837;DHT22;400;53.550;9.932;2022-09-04T02:32:51;17.30;99.90
837;DHT22;400;53.550;9.932;2022-09-04T02:35:25;17.40;99.90
837;DHT22;400;53.550;9.932;2022-09-04T02:38:04;17.40;99.90
837;DHT22;400;53.550;9.932;2022-09-04T02:40:40;17.30;99.90
837;DHT22;400;53.550;9.932;2022-09-04T02:43:24;17.40;99.90
837;DHT22;400;53.550;9.932;2022-09-04T02:46:02;17.30;99.90
837;DHT22;400;53.550;9.932;2022-09-04T02:48:41;17.40;99.90
837;DHT22;400;53.550;9.932;2022-09-04T02:51:22;17.30;99.90
837;DHT22;400;53.550;9.932;2022-09-04T02:54:00;17.30;99.90
837;DHT22;400;53.550;9.932;2022-09-04T02:56:37;17.30;99.90
837;DHT22;400;53.550;9.932;2022-09-04T02:59:25;17.30;99.90
837;DHT22;400;53.550;9.932;2022-09-04T03:01:57;17.30;99.90
837;DHT22;400;53.550;9.932;2022-09-04T03:04:32;17.30;99.90
837;DHT22;400;53.550;9.932;2022-09-04T03:07:05;17.20;99.90
837;DHT22;400;53.550;9.932;2022-09-04T03:09:39;17.30;99.90
837;DHT22;400;53.550;9.932;2022-09-04T03:12:20;17.30;99.90
837;DHT22;400;53.550;9.932;2022-09-04T03:14:58;17.30;99.90
837;DHT22;400;53.550;9.932;2022-09-04T03:17:34;17.20;99.90
837;DHT22;400;53.550;9.932;2022-09-04T03:20:08;17.30;99.90
837;DHT22;400;53.550;9.932;2022-09-04T03:22:44;17.20;99.90
837;DHT22;400;53.550;9.932;2022-09-04T03:25:34;17.20;99.90
837;DHT22;400;53.550;9.932;2022-09-04T03:28:02;17.20;99.90
837;DHT22;400;53.550;9.932;2022-09-04T03:30:31;17.20;99.90
837;DHT22;400;53.550;9.932;2022-09-04T03:33:06;17.10;99.90
837;DHT22;400;53.550;9.932;2022-09-04T03:35:38;17.10;99.90
837;DHT22;400;53.550;9.932;2022-09-04T03:38:17;17.10;99.90
837;DHT22;400;53.550;9.932;2022-09-04T03:40:53;17.20;99.90
837;DHT22;400;53.550;9.932;2022-09-04T03:43:38;17.10;99.90
837;DHT22;400;53.550;9.932;2022-09-04T03:46:19;17.10;99.90
837;DHT22;400;53.550;9.932;2022-09-04T03:49:01;17.10;99.90
837;DHT22;400;53.550;9.932;2022-09-04T03:51:41;17.10;99.90
837;DHT22;400;53.550;9.932;2022-09-04T03:54:22;17.10;99.90
837;DHT22;400;53.550;9.932;2022-09-04T03:57:16;17.10;99.90
837;DHT22;400;53.550;9.932;2022-09-04T04:00:01;17.10;99.90
837;DHT22;400;53.550;9.932;2022-09-04T04:02:40;17.10;99.90
837;DHT22;400;53.550;9.932;2022-09-04T04:05:40;17.00;99.90
837;DHT22;400;53.550;9.932;2022-09-04T04:08:32;17.00;99.90
837;DHT22;400;53.550;9.932;2022-09-04T04:11:19;17.00;99.90
837;DHT22;400;53.550;9.932;2022-09-04T04:14:10;17.00;99.90
837;DHT22;400;53.550;9.932;2022-09-04T04:16:47;17.00;99.90
837;DHT22;400;53.550;9.932;2022-09-04T04:19:31;16.90;99.90
837;DHT22;400;53.550;9.932;2022-09-04T04:22:22;16.90;99.90
837;DHT22;400;53.550;9.932;2022-09-04T04:25:04;16.90;99.90
837;DHT22;400;53.550;9.932;2022-09-04T04:27:52;16.90;99.90
837;DHT22;400;53.550;9.932;2022-09-04T04:30:28;16.90;99.90
837;DHT22;400;53.550;9.932;2022-09-04T04:35:55;16.90;99.90
837;DHT22;400;53.550;9.932;2022-09-04T04:38:45;16.80;99.90
837;DHT22;400;53.550;9.932;2022-09-04T04:41:30;16.90;99.90
837;DHT22;400;53.550;9.932;2022-09-04T04:44:28;16.80;99.90
837;DHT22;400;53.550;9.932;2022-09-04T04:47:22;16.80;99.90
837;DHT22;400;53.550;9.932;2022-09-04T04:50:02;16.80;99.90
837;DHT22;400;53.550;9.932;2022-09-04T04:52:42;16.80;99.90
837;DHT22;400;53.550;9.932;2022-09-04T04:55:19;16.80;99.90
837;DHT22;400;53.550;9.932;2022-09-04T04:58:09;16.80;99.90
837;DHT22;400;53.550;9.932;2022-09-04T05:00:42;16.80;99.90
837;DHT22;400;53.550;9.932;2022-09-04T05:03:15;16.80;99.90
837;DHT22;400;53.550;9.932;2022-09-04T05:05:51;16.70;99.90
837;DHT22;400;53.550;9.932;2022-09-04T05:08:30;16.70;99.90
837;DHT22;400;53.550;9.932;2022-09-04T05:11:06;16.70;99.90
837;DHT22;400;53.550;9.932;2022-09-04T05:13:39;16.70;99.90
837;DHT22;400;53.550;9.932;2022-09-04T05:16:16;16.70;99.90
837;DHT22;400;53.550;9.932;2022-09-04T05:18:48;16.80;99.90
837;DHT22;400;53.550;9.932;2022-09-04T05:21:22;16.80;99.90
837;DHT22;400;53.550;9.932;2022-09-04T05:23:55;16.80;99.90
837;DHT22;400;53.550;9.932;2022-09-04T05:26:28;16.80;99.90
837;DHT22;400;53.550;9.932;2022-09-04T05:29:05;16.90;99.90
837;DHT22;400;53.550;9.932;2022-09-04T05:31:41;16.90;99.90
837;DHT22;400;53.550;9.932;2022-09-04T05:34:18;16.90;99.90
837;DHT22;400;53.550;9.932;2022-09-04T05:36:51;16.90;99.90
837;DHT22;400;53.550;9.932;2022-09-04T05:39:27;16.90;99.90
837;DHT22;400;53.550;9.932;2022-09-04T05:42:09;16.90;99.90
837;DHT22;400;53.550;9.932;2022-09-04T05:44:45;16.90;99.90
837;DHT22;400;53.550;9.932;2022-09-04T05:47:33;17.00;99.90
837;DHT22;400;53.550;9.932;2022-09-04T05:50:26;17.00;99.90
837;DHT22;400;53.550;9.932;2022-09-04T05:53:08;16.90;99.90
837;DHT22;400;53.550;9.932;2022-09-04T05:56:09;17.00;99.90
837;DHT22;400;53.550;9.932;2022-09-04T05:58:53;17.00;99.90
837;DHT22;400;53.550;9.932;2022-09-04T06:01:36;17.00;99.90
837;DHT22;400;53.550;9.932;2022-09-04T06:04:24;17.10;99.90
837;DHT22;400;53.550;9.932;2022-09-04T06:07:04;17.10;99.90
837;DHT22;400;53.550;9.932;2022-09-04T06:09:53;17.00;99.90
837;DHT22;400;53.550;9.932;2022-09-04T06:18:14;17.20;99.90
837;DHT22;400;53.550;9.932;2022-09-04T06:21:01;17.20;99.90
837;DHT22;400;53.550;9.932;2022-09-04T06:23:44;17.20;99.90
837;DHT22;400;53.550;9.932;2022-09-04T06:26:30;17.30;99.90
837;DHT22;400;53.550;9.932;2022-09-04T06:32:26;17.30;99.90
837;DHT22;400;53.550;9.932;2022-09-04T06:35:14;17.40;99.90
837;DHT22;400;53.550;9.932;2022-09-04T06:37:50;17.40;99.90
837;DHT22;400;53.550;9.932;2022-09-04T06:40:33;17.50;99.90
837;DHT22;400;53.550;9.932;2022-09-04T06:43:14;17.50;99.90
837;DHT22;400;53.550;9.932;2022-09-04T06:45:49;17.60;99.90
837;DHT22;400;53.550;9.932;2022-09-04T06:48:37;17.50;99.90
837;DHT22;400;53.550;9.932;2022-09-04T06:51:17;17.50;99.90
837;DHT22;400;53.550;9.932;2022-09-04T06:53:58;17.60;99.90
837;DHT22;400;53.550;9.932;2022-09-04T06:56:59;17.60;99.90
837;DHT22;400;53.550;9.932;2022-09-04T06:59:38;17.70;99.90
837;DHT22;400;53.550;9.932;2022-09-04T07:02:22;17.70;99.90
837;DHT22;400;53.550;9.932;2022-09-04T07:05:08;17.80;99.90
837;DHT22;400;53.550;9.932;2022-09-04T07:07:48;17.80;99.90
837;DHT22;400;53.550;9.932;2022-09-04T07:10:23;17.90;99.90
837;DHT22;400;53.550;9.932;2022-09-04T07:16:02;18.00;99.90
837;DHT22;400;53.550;9.932;2022-09-04T07:18:44;18.10;99.90
837;DHT22;400;53.550;9.932;2022-09-04T07:21:23;18.20;99.90
837;DHT22;400;53.550;9.932;2022-09-04T07:24:01;18.20;99.90
837;DHT22;400;53.550;9.932;2022-09-04T07:26:35;18.20;99.90
837;DHT22;400;53.550;9.932;2022-09-04T07:29:20;18.30;99.90
837;DHT22;400;53.550;9.932;2022-09-04T07:31:56;18.30;99.80
837;DHT22;400;53.550;9.932;2022-09-04T07:34:36;18.40;99.70
837;DHT22;400;53.550;9.932;2022-09-04T07:37:18;18.40;99.70
837;DHT22;400;53.550;9.932;2022-09-04T07:39:59;18.50;99.70
837;DHT22;400;53.550;9.932;2022-09-04T07:42:31;18.50;99.50
837;DHT22;400;53.550;9.932;2022-09-04T07:45:03;18.60;99.60
837;DHT22;400;53.550;9.932;2022-09-04T07:47:35;18.60;99.60
837;DHT22;400;53.550;9.932;2022-09-04T07:50:08;18.60;99.40
837;DHT22;400;53.550;9.932;2022-09-04T07:53:00;18.70;99.50
837;DHT22;400;53.550;9.932;2022-09-04T07:55:39;18.80;99.60
837;DHT22;400;53.550;9.932;2022-09-04T08:01:31;18.90;99.70
837;DHT22;400;53.550;9.932;2022-09-04T08:04:30;19.00;99.70
837;DHT22;400;53.550;9.932;2022-09-04T08:07:10;19.10;99.60
837;DHT22;400;53.550;9.932;2022-09-04T08:10:10;19.10;99.60
837;DHT22;400;53.550;9.932;2022-09-04T08:12:53;19.20;99.60
837;DHT22;400;53.550;9.932;2022-09-04T08:15:30;19.30;99.60
837;DHT22;400;53.550;9.932;2022-09-04T08:21:13;19.30;99.70
837;DHT22;400;53.550;9.932;2022-09-04T08:27:17;19.40;99.70
837;DHT22;400;53.550;9.932;2022-09-04T08:29:58;19.50;99.70
837;DHT22;400;53.550;9.932;2022-09-04T08:35:23;19.50;99.50
837;DHT22;400;53.550;9.932;2022-09-04T08:38:13;19.60;99.70
837;DHT22;400;53.550;9.932;2022-09-04T08:44:18;19.70;99.70
837;DHT22;400;53.550;9.932;2022-09-04T08:47:13;19.70;99.60
837;DHT22;400;53.550;9.932;2022-09-04T08:50:08;19.80;99.60
837;DHT22;400;53.550;9.932;2022-09-04T08:53:04;19.80;99.70
837;DHT22;400;53.550;9.932;2022-09-04T08:55:53;19.90;99.60
837;DHT22;400;53.550;9.932;2022-09-04T08:58:58;19.90;99.80
837;DHT22;400;53.550;9.932;2022-09-04T09:01:57;20.00;99.50
837;DHT22;400;53.550;9.932;2022-09-04T09:04:59;20.00;99.40
837;DHT22;400;53.550;9.932;2022-09-04T09:14:49;20.20;99.50
837;DHT22;400;53.550;9.932;2022-09-04T09:17:35;20.20;99.20
837;DHT22;400;53.550;9.932;2022-09-04T09:20:17;20.30;99.30
837;DHT22;400;53.550;9.932;2022-09-04T09:23:19;20.30;99.20
837;DHT22;400;53.550;9.932;2022-09-04T09:25:49;20.40;99.10
837;DHT22;400;53.550;9.932;2022-09-04T09:28:52;20.40;99.00
837;DHT22;400;53.550;9.932;2022-09-04T09:38:11;20.70;98.60
837;DHT22;400;53.550;9.932;2022-09-04T09:41:05;20.70;98.30
837;DHT22;400;53.550;9.932;2022-09-04T09:44:08;20.80;98.40
837;DHT22;400;53.550;9.932;2022-09-04T09:47:18;20.90;98.20
837;DHT22;400;53.550;9.932;2022-09-04T09:50:13;20.90;98.50
837;DHT22;400;53.550;9.932;2022-09-04T09:56:31;21.10;97.80
837;DHT22;400;53.550;9.932;2022-09-04T10:02:33;21.20;97.70
837;DHT22;400;53.550;9.932;2022-09-04T10:08:20;21.30;97.30
837;DHT22;400;53.550;9.932;2022-09-04T10:11:22;21.40;97.10
837;DHT22;400;53.550;9.932;2022-09-04T10:14:15;21.40;96.60
837;DHT22;400;53.550;9.932;2022-09-04T10:17:09;21.50;96.60
837;DHT22;400;53.550;9.932;2022-09-04T10:20:15;21.50;96.70
837;DHT22;400;53.550;9.932;2022-09-04T10:23:17;21.50;96.80
837;DHT22;400;53.550;9.932;2022-09-04T10:26:19;21.60;96.50
837;DHT22;400;53.550;9.932;2022-09-04T10:32:22;21.60;96.20
837;DHT22;400;53.550;9.932;2022-09-04T10:35:06;21.70;96.30
837;DHT22;400;53.550;9.932;2022-09-04T10:37:49;21.80;95.90
837;DHT22;400;53.550;9.932;2022-09-04T10:40:25;21.80;95.50
837;DHT22;400;53.550;9.932;2022-09-04T10:43:26;21.90;95.60
837;DHT22;400;53.550;9.932;2022-09-04T10:46:00;21.90;95.50
837;DHT22;400;53.550;9.932;2022-09-04T10:51:46;22.00;95.00
837;DHT22;400;53.550;9.932;2022-09-04T10:57:49;22.20;94.40
837;DHT22;400;53.550;9.932;2022-09-04T11:00:20;22.20;94.30
837;DHT22;400;53.550;9.932;2022-09-04T11:03:20;22.30;94.30
837;DHT22;400;53.550;9.932;2022-09-04T11:06:15;22.30;93.80
837;DHT22;400;53.550;9.932;2022-09-04T11:09:05;22.40;93.90
837;DHT22;400;53.550;9.932;2022-09-04T11:11:46;22.50;93.80
837;DHT22;400;53.550;9.932;2022-09-04T11:21:02;22.70;93.30
837;DHT22;400;53.550;9.932;2022-09-04T11:30:02;22.90;93.10
837;DHT22;400;53.550;9.932;2022-09-04T11:33:09;22.90;92.70
837;DHT22;400;53.550;9.932;2022-09-04T11:36:00;23.00;92.60
837;DHT22;400;53.550;9.932;2022-09-04T11:39:04;23.10;92.70
837;DHT22;400;53.550;9.932;2022-09-04T11:42:06;23.10;92.60
837;DHT22;400;53.550;9.932;2022-09-04T11:45:02;23.20;92.50
837;DHT22;400;53.550;9.932;2022-09-04T11:48:11;23.20;92.30
837;DHT22;400;53.550;9.932;2022-09-04T11:51:15;23.30;92.30
837;DHT22;400;53.550;9.932;2022-09-04T11:57:06;23.30;92.10
837;DHT22;400;53.550;9.932;2022-09-04T11:59:47;23.40;92.10
837;DHT22;400;53.550;9.932;2022-09-04T12:05:38;23.50;91.90
837;DHT22;400;53.550;9.932;2022-09-04T12:12:07;23.60;91.40
837;DHT22;400;53.550;9.932;2022-09-04T12:15:04;23.60;91.40
837;DHT22;400;53.550;9.932;2022-09-04T12:18:02;23.60;91.50
837;DHT22;400;53.550;9.932;2022-09-04T12:21:24;23.60;91.60
837;DHT22;400;53.550;9.932;2022-09-04T12:24:25;23.70;91.70
837;DHT22;400;53.550;9.932;2022-09-04T12:27:52;23.80;91.30
837;DHT22;400;53.550;9.932;2022-09-04T12:30:30;23.90;90.70
837;DHT22;400;53.550;9.932;2022-09-04T12:39:57;24.00;90.40
837;DHT22;400;53.550;9.932;2022-09-04T12:42:33;24.00;90.40
837;DHT22;400;53.550;9.932;2022-09-04T12:45:08;24.00;90.20
837;DHT22;400;53.550;9.932;2022-09-04T12:47:47;24.10;90.10
837;DHT22;400;53.550;9.932;2022-09-04T12:50:27;24.10;89.70
837;DHT22;400;53.550;9.932;2022-09-04T12:53:22;24.10;90.30
837;DHT22;400;53.550;9.932;2022-09-04T12:56:02;24.10;89.80
837;DHT22;400;53.550;9.932;2022-09-04T12:59:02;24.20;89.00
837;DHT22;400;53.550;9.932;2022-09-04T13:01:40;24.10;89.50
837;DHT22;400;53.550;9.932;2022-09-04T13:04:35;24.20;88.00
837;DHT22;400;53.550;9.932;2022-09-04T13:07:17;24.20;87.50
837;DHT22;400;53.550;9.932;2022-09-04T13:09:54;24.20;87.60
837;DHT22;400;53.550;9.932;2022-09-04T13:12:30;24.20;86.90
837;DHT22;400;53.550;9.932;2022-09-04T13:15:18;24.30;85.90
837;DHT22;400;53.550;9.932;2022-09-04T13:17:54;24.30;86.50
837;DHT22;400;53.550;9.932;2022-09-04T13:20:28;24.30;85.40
837;DHT22;400;53.550;9.932;2022-09-04T13:23:15;24.30;85.80
837;DHT22;400;53.550;9.932;2022-09-04T13:25:57;24.30;86.60
837;DHT22;400;53.550;9.932;2022-09-04T13:28:37;24.40;86.90
837;DHT22;400;53.550;9.932;2022-09-04T13:31:33;24.40;86.30
837;DHT22;400;53.550;9.932;2022-09-04T13:34:17;24.40;84.50
837;DHT22;400;53.550;9.932;2022-09-04T13:36:57;24.40;84.20
837;DHT22;400;53.550;9.932;2022-09-04T13:39:58;24.50;84.80
837;DHT22;400;53.550;9.932;2022-09-04T13:45:48;24.60;84.80
837;DHT22;400;53.550;9.932;2022-09-04T13:48:28;24.60;84.80
837;DHT22;400;53.550;9.932;2022-09-04T13:51:00;24.60;84.30
837;DHT22;400;53.550;9.932;2022-09-04T13:53:36;24.60;84.70
837;DHT22;400;53.550;9.932;2022-09-04T13:56:12;24.60;87.80
837;DHT22;400;53.550;9.932;2022-09-04T13:58:48;24.60;85.00
837;DHT22;400;53.550;9.932;2022-09-04T14:01:22;24.60;84.50
837;DHT22;400;53.550;9.932;2022-09-04T14:03:57;24.70;84.20
837;DHT22;400;53.550;9.932;2022-09-04T14:06:28;24.70;84.60
837;DHT22;400;53.550;9.932;2022-09-04T14:08:57;24.70;83.20
837;DHT22;400;53.550;9.932;2022-09-04T14:14:44;24.70;83.50
837;DHT22;400;53.550;9.932;2022-09-04T14:17:26;24.70;83.80
837;DHT22;400;53.550;9.932;2022-09-04T14:20:06;24.70;83.10
837;DHT22;400;53.550;9.932;2022-09-04T14:22:45;24.70;84.10
837;DHT22;400;53.550;9.932;2022-09-04T14:25:18;24.80;84.60
837;DHT22;400;53.550;9.932;2022-09-04T14:27:53;24.80;83.50
837;DHT22;400;53.550;9.932;2022-09-04T14:30:22;24.80;83.20
837;DHT22;400;53.550;9.932;2022-09-04T14:33:03;24.90;83.90
837;DHT22;400;53.550;9.932;2022-09-04T14:35:44;25.00;83.00
837;DHT22;400;53.550;9.932;2022-09-04T14:38:36;25.00;82.80
837;DHT22;400;53.550;9.932;2022-09-04T14:41:19;25.00;81.80
837;DHT22;400;53.550;9.932;2022-09-04T14:44:06;25.00;81.30
837;DHT22;400;53.550;9.932;2022-09-04T14:46:48;25.00;81.60
837;DHT22;400;53.550;9.932;2022-09-04T14:49:22;25.00;82.00
837;DHT22;400;53.550;9.932;2022-09-04T14:51:54;25.00;81.70
837;DHT22;400;53.550;9.932;2022-09-04T14:54:25;25.00;81.90
837;DHT22;400;53.550;9.932;2022-09-04T14:56:56;25.00;81.80
837;DHT22;400;53.550;9.932;2022-09-04T14:59:34;25.00;81.00
837;DHT22;400;53.550;9.932;2022-09-04T15:02:20;25.00;81.00
837;DHT22;400;53.550;9.932;2022-09-04T15:04:58;25.00;81.70
837;DHT22;400;53.550;9.932;2022-09-04T15:07:56;25.10;81.40
837;DHT22;400;53.550;9.932;2022-09-04T15:10:32;25.10;81.80
837;DHT22;400;53.550;9.932;2022-09-04T15:13:40;25.20;81.70
837;DHT22;400;53.550;9.932;2022-09-04T15:16:20;25.30;81.10
837;DHT22;400;53.550;9.932;2022-09-04T15:18:55;25.30;80.50
837;DHT22;400;53.550;9.932;2022-09-04T15:21:28;25.30;80.00
837;DHT22;400;53.550;9.932;2022-09-04T15:24:08;25.20;79.60
837;DHT22;400;53.550;9.932;2022-09-04T15:26:42;25.30;80.00
837;DHT22;400;53.550;9.932;2022-09-04T15:29:15;25.30;80.30
837;DHT22;400;53.550;9.932;2022-09-04T15:31:44;25.30;79.90
837;DHT22;400;53.550;9.932;2022-09-04T15:34:22;25.30;80.30
837;DHT22;400;53.550;9.932;2022-09-04T15:36:57;25.20;79.70
837;DHT22;400;53.550;9.932;2022-09-04T15:39:46;25.20;79.60
837;DHT22;400;53.550;9.932;2022-09-04T15:42:33;25.20;80.10
837;DHT22;400;53.550;9.932;2022-09-04T15:45:07;25.20;79.80
837;DHT22;400;53.550;9.932;2022-09-04T15:48:02;25.20;78.80
837;DHT22;400;53.550;9.932;2022-09-04T15:50:34;25.10;78.70
837;DHT22;400;53.550;9.932;2022-09-04T15:53:14;25.10;79.00
837;DHT22;400;53.550;9.932;2022-09-04T15:56:04;25.10;79.20
837;DHT22;400;53.550;9.932;2022-09-04T15:58:44;25.10;79.20
837;DHT22;400;53.550;9.932;2022-09-04T16:01:23;25.10;78.60
837;DHT22;400;53.550;9.932;2022-09-04T16:04:04;25.10;78.60
837;DHT22;400;53.550;9.932;2022-09-04T16:06:46;25.10;78.60
837;DHT22;400;53.550;9.932;2022-09-04T16:09:23;25.10;79.10
837;DHT22;400;53.550;9.932;2022-09-04T16:12:00;25.20;78.90
837;DHT22;400;53.550;9.932;2022-09-04T16:14:34;25.10;78.60
837;DHT22;400;53.550;9.932;2022-09-04T16:17:09;25.20;79.20
837;DHT22;400;53.550;9.932;2022-09-04T16:19:43;25.20;78.90
837;DHT22;400;53.550;9.932;2022-09-04T16:22:24;25.20;79.10
837;DHT22;400;53.550;9.932;2022-09-04T16:25:05;25.20;79.30
837;DHT22;400;53.550;9.932;2022-09-04T16:27:50;25.20;79.00
837;DHT22;400;53.550;9.932;2022-09-04T16:30:45;25.20;79.20
837;DHT22;400;53.550;9.932;2022-09-04T16:33:21;25.20;79.10
837;DHT22;400;53.550;9.932;2022-09-04T16:35:59;25.30;79.40
837;DHT22;400;53.550;9.932;2022-09-04T16:38:31;25.20;79.10
837;DHT22;400;53.550;9.932;2022-09-04T16:41:12;25.20;79.10
837;DHT22;400;53.550;9.932;2022-09-04T16:44:10;25.10;79.00
837;DHT22;400;53.550;9.932;2022-09-04T16:46:47;25.20;79.40
837;DHT22;400;53.550;9.932;2022-09-04T16:49:35;25.10;80.10
837;DHT22;400;53.550;9.932;2022-09-04T16:52:27;25.00;79.80
837;DHT22;400;53.550;9.932;2022-09-04T16:55:04;24.90;79.50
837;DHT22;400;53.550;9.932;2022-09-04T16:57:37;24.80;79.50
837;DHT22;400;53.550;9.932;2022-09-04T17:00:09;24.80;80.20
837;DHT22;400;53.550;9.932;2022-09-04T17:02:42;24.80;80.30
837;DHT22;400;53.550;9.932;2022-09-04T17:05:19;24.70;80.30
837;DHT22;400;53.550;9.932;2022-09-04T17:07:53;24.70;80.50
837;DHT22;400;53.550;9.932;2022-09-04T17:10:44;24.70;81.00
837;DHT22;400;53.550;9.932;2022-09-04T17:13:18;24.70;81.60
837;DHT22;400;53.550;9.932;2022-09-04T17:15:54;24.60;80.60
837;DHT22;400;53.550;9.932;2022-09-04T17:18:27;24.60;80.60
837;DHT22;400;53.550;9.932;2022-09-04T17:21:06;24.60;81.20
837;DHT22;400;53.550;9.932;2022-09-04T17:24:06;24.80;81.00
837;DHT22;400;53.550;9.932;2022-09-04T17:26:44;25.20;80.00
837;DHT22;400;53.550;9.932;2022-09-04T17:29:19;25.30;79.70
837;DHT22;400;53.550;9.932;2022-09-04T17:31:57;25.30;79.70
837;DHT22;400;53.550;9.932;2022-09-04T17:34:44;25.10;79.80
837;DHT22;400;53.550;9.932;2022-09-04T17:37:19;24.90;80.70
837;DHT22;400;53.550;9.932;2022-09-04T17:39:56;24.80;81.10
837;DHT22;400;53.550;9.932;2022-09-04T17:42:28;24.70;81.50
837;DHT22;400;53.550;9.932;2022-09-04T17:45:05;24.60;81.80
837;DHT22;400;53.550;9.932;2022-09-04T17:47:47;24.40;81.90
837;DHT22;400;53.550;9.932;2022-09-04T17:50:24;24.40;82.40
837;DHT22;400;53.550;9.932;2022-09-04T17:52:56;24.30;82.80
837;DHT22;400;53.550;9.932;2022-09-04T17:55:35;24.20;83.00
837;DHT22;400;53.550;9.932;2022-09-04T17:58:07;24.10;83.10
837;DHT22;400;53.550;9.932;2022-09-04T18:00:53;24.10;83.40
837;DHT22;400;53.550;9.932;2022-09-04T18:03:36;23.90;83.70
837;DHT22;400;53.550;9.932;2022-09-04T18:06:13;23.90;84.10
837;DHT22;400;53.550;9.932;2022-09-04T18:08:47;23.80;84.40
837;DHT22;400;53.550;9.932;2022-09-04T18:11:21;23.70;84.50
837;DHT22;400;53.550;9.932;2022-09-04T18:14:06;23.60;84.80
837;DHT22;400;53.550;9.932;2022-09-04T18:16:53;23.60;85.20
837;DHT22;400;53.550;9.932;2022-09-04T18:19:31;23.50;85.30
837;DHT22;400;53.550;9.932;2022-09-04T18:22:09;23.40;85.80
837;DHT22;400;53.550;9.932;2022-09-04T18:24:47;23.30;86.10
837;DHT22;400;53.550;9.932;2022-09-04T18:27:23;23.20;86.20
837;DHT22;400;53.550;9.932;2022-09-04T18:29:57;23.20;86.50
837;DHT22;400;53.550;9.932;2022-09-04T18:32:35;23.10;86.80
837;DHT22;400;53.550;9.932;2022-09-04T18:35:09;23.10;87.00
837;DHT22;400;53.550;9.932;2022-09-04T18:37:45;23.00;87.50
837;DHT22;400;53.550;9.932;2022-09-04T18:40:20;23.00;87.50
837;DHT22;400;53.550;9.932;2022-09-04T18:42:56;23.00;87.80
837;DHT22;400;53.550;9.932;2022-09-04T18:45:28;22.90;88.00
837;DHT22;400;53.550;9.932;2022-09-04T18:47:58;22.90;88.20
837;DHT22;400;53.550;9.932;2022-09-04T18:50:38;22.90;88.00
837;DHT22;400;53.550;9.932;2022-09-04T18:53:12;22.80;88.00
837;DHT22;400;53.550;9.932;2022-09-04T18:55:45;22.80;88.20
837;DHT22;400;53.550;9.932;2022-09-04T19:01:14;22.60;88.10
837;DHT22;400;53.550;9.932;2022-09-04T19:03:46;22.60;88.10
837;DHT22;400;53.550;9.932;2022-09-04T19:06:26;22.60;88.20
837;DHT22;400;53.550;9.932;2022-09-04T19:08:59;22.50;88.20
837;DHT22;400;53.550;9.932;2022-09-04T19:11:31;22.50;88.50
837;DHT22;400;53.550;9.932;2022-09-04T19:14:05;22.40;88.40
837;DHT22;400;53.550;9.932;2022-09-04T19:16:38;22.40;88.40
837;DHT22;400;53.550;9.932;2022-09-04T19:19:11;22.40;88.50
837;DHT22;400;53.550;9.932;2022-09-04T19:21:45;22.40;88.50
837;DHT22;400;53.550;9.932;2022-09-04T19:24:23;22.30;88.60
837;DHT22;400;53.550;9.932;2022-09-04T19:27:13;22.30;88.60
837;DHT22;400;53.550;9.932;2022-09-04T19:29:51;22.30;88.60
837;DHT22;400;53.550;9.932;2022-09-04T19:32:28;22.20;88.80
837;DHT22;400;53.550;9.932;2022-09-04T19:35:11;22.20;88.90
837;DHT22;400;53.550;9.932;2022-09-04T19:37:51;22.10;88.80
837;DHT22;400;53.550;9.932;2022-09-04T19:40:26;22.10;89.20
837;DHT22;400;53.550;9.932;2022-09-04T19:42:56;22.00;89.20
837;DHT22;400;53.550;9.932;2022-09-04T19:45:29;21.90;89.20
837;DHT22;400;53.550;9.932;2022-09-04T19:48:08;21.90;89.30
837;DHT22;400;53.550;9.932;2022-09-04T19:50:46;22.00;89.60
837;DHT22;400;53.550;9.932;2022-09-04T19:53:30;21.90;89.60
837;DHT22;400;53.550;9.932;2022-09-04T19:56:02;21.90;89.40
837;DHT22;400;53.550;9.932;2022-09-04T19:58:36;21.90;89.60